createdAt,value
2023-05-01T00:00:05.677Z,681.00
2023-05-01T00:01:05.486Z,678.00
2023-05-01T00:02:05.490Z,682.00
2023-05-01T00:03:05.573Z,674.00
2023-05-01T00:04:05.641Z,672.00
2023-05-01T00:05:05.614Z,665.00
2023-05-01T00:06:05.598Z,661.00
2023-05-01T00:07:05.545Z,664.00
2023-05-01T00:08:05.545Z,679.00
2023-05-01T00:09:05.594Z,678.00
2023-05-01T00:10:05.592Z,684.00
2023-05-01T00:11:05.619Z,692.00
2023-05-01T00:12:05.620Z,676.00
2023-05-01T00:13:05.621Z,700.00
2023-05-01T00:14:05.650Z,670.00
2023-05-01T00:15:05.691Z,680.00
2023-05-01T00:16:05.758Z,670.00
2023-05-01T00:17:05.728Z,663.00
2023-05-01T00:18:05.750Z,663.00
2023-05-01T00:19:05.763Z,695.00
2023-05-01T00:20:05.763Z,685.00
2023-05-01T00:21:05.773Z,683.00
2023-05-01T00:22:05.768Z,673.00
2023-05-01T00:23:05.771Z,664.00
2023-05-01T00:24:05.803Z,672.00
2023-05-01T00:25:05.799Z,665.00
2023-05-01T00:26:05.810Z,658.00
2023-05-01T00:27:05.830Z,665.00
2023-05-01T00:28:05.804Z,674.00
2023-05-01T00:29:05.816Z,670.00
2023-05-01T00:30:05.892Z,665.00
2023-05-01T00:31:05.879Z,664.00
2023-05-01T00:32:05.945Z,663.00
2023-05-01T00:33:05.910Z,663.00
2023-05-01T00:34:05.866Z,665.00
2023-05-01T00:35:05.844Z,666.00
2023-05-01T00:36:05.843Z,682.00
2023-05-01T00:37:05.838Z,680.00
2023-05-01T00:38:05.818Z,696.00
2023-05-01T00:39:05.796Z,684.00
2023-05-01T00:40:05.769Z,675.00
2023-05-01T00:41:05.751Z,694.00
2023-05-01T00:42:06.456Z,694.00
2023-05-01T00:43:05.745Z,696.00
2023-05-01T00:44:05.738Z,684.00
2023-05-01T00:45:05.713Z,686.00
2023-05-01T00:46:05.817Z,682.00
2023-05-01T00:47:05.702Z,676.00
2023-05-01T00:48:05.711Z,664.00
2023-05-01T00:49:05.704Z,665.00
2023-05-01T00:50:05.671Z,665.00
2023-05-01T00:51:05.656Z,665.00
2023-05-01T00:52:05.654Z,666.00
2023-05-01T00:53:05.646Z,677.00
2023-05-01T00:54:05.644Z,674.00
2023-05-01T00:55:05.666Z,666.00
2023-05-01T00:56:05.629Z,674.00
2023-05-01T00:57:05.627Z,670.00
2023-05-01T00:58:05.671Z,667.00
2023-05-01T00:59:05.616Z,669.00
2023-05-01T01:00:05.602Z,664.00
2023-05-01T01:01:05.656Z,655.00
2023-05-01T01:02:05.594Z,655.00
2023-05-01T01:03:05.586Z,655.00
2023-05-01T01:04:05.612Z,664.00
2023-05-01T01:05:05.558Z,670.00
2023-05-01T01:06:05.569Z,665.00
2023-05-01T01:07:05.540Z,677.00
2023-05-01T01:08:05.563Z,668.00
2023-05-01T01:09:05.531Z,673.00
2023-05-01T01:10:05.532Z,658.00
2023-05-01T01:11:05.503Z,668.00
2023-05-01T01:12:05.506Z,653.00
2023-05-01T01:13:05.501Z,654.00
2023-05-01T01:14:05.488Z,661.00
2023-05-01T01:15:05.483Z,658.00
2023-05-01T01:16:05.475Z,659.00
2023-05-01T01:17:05.507Z,652.00
2023-05-01T01:18:05.573Z,657.00
2023-05-01T01:19:05.508Z,659.00
2023-05-01T01:20:05.540Z,661.00
2023-05-01T01:21:05.604Z,661.00
2023-05-01T01:22:05.552Z,660.00
2023-05-01T01:23:05.575Z,662.00
2023-05-01T01:24:05.616Z,660.00
2023-05-01T01:25:05.610Z,653.00
2023-05-01T01:26:05.612Z,651.00
2023-05-01T01:27:05.630Z,648.00
2023-05-01T01:28:05.643Z,658.00
2023-05-01T01:29:05.650Z,651.00
2023-05-01T01:30:05.663Z,652.00
2023-05-01T01:31:05.719Z,651.00
2023-05-01T01:32:05.695Z,645.00
2023-05-01T01:33:05.731Z,649.00
2023-05-01T01:34:05.692Z,638.00
2023-05-01T01:35:05.722Z,651.00
2023-05-01T01:36:05.742Z,649.00
2023-05-01T01:37:05.755Z,645.00
2023-05-01T01:38:05.775Z,648.00
2023-05-01T01:39:05.786Z,650.00
2023-05-01T01:40:05.798Z,640.00
2023-05-01T01:41:05.843Z,645.00
2023-05-01T01:42:05.826Z,653.00
2023-05-01T01:43:05.845Z,655.00
2023-05-01T01:44:05.882Z,652.00
2023-05-01T01:45:05.898Z,658.00
2023-05-01T01:46:05.934Z,665.00
2023-05-01T01:47:05.921Z,661.00
2023-05-01T01:48:05.986Z,656.00
2023-05-01T01:49:05.936Z,656.00
2023-05-01T01:50:05.968Z,661.00
2023-05-01T01:51:05.971Z,661.00
2023-05-01T01:52:06.071Z,662.00
2023-05-01T01:53:05.968Z,662.00
2023-05-01T01:54:06.028Z,660.00
2023-05-01T01:55:06.007Z,654.00
2023-05-01T01:56:05.966Z,656.00
2023-05-01T01:57:05.972Z,654.00
2023-05-01T01:58:05.953Z,649.00
2023-05-01T01:59:06.034Z,649.00
2023-05-01T02:00:05.940Z,641.00
2023-05-01T02:01:05.959Z,649.00
2023-05-01T02:02:05.990Z,655.00
2023-05-01T02:03:06.080Z,643.00
2023-05-01T02:04:05.988Z,645.00
2023-05-01T02:05:05.931Z,646.00
2023-05-01T02:06:06.006Z,652.00
2023-05-01T02:07:05.985Z,653.00
2023-05-01T02:08:06.019Z,648.00
2023-05-01T02:09:06.005Z,648.00
2023-05-01T02:10:06.035Z,643.00
2023-05-01T02:11:06.030Z,649.00
2023-05-01T02:12:06.029Z,641.00
2023-05-01T02:13:06.045Z,625.00
2023-05-01T02:14:06.076Z,628.00
2023-05-01T02:15:06.079Z,647.00
2023-05-01T02:16:06.107Z,645.00
2023-05-01T02:17:06.088Z,635.00
2023-05-01T02:18:06.143Z,626.00
2023-05-01T02:19:06.107Z,633.00
2023-05-01T02:20:06.116Z,635.00
2023-05-01T02:21:06.136Z,635.00
2023-05-01T02:22:06.152Z,631.00
2023-05-01T02:23:06.149Z,632.00
2023-05-01T02:24:06.154Z,633.00
2023-05-01T02:25:06.174Z,637.00
2023-05-01T02:26:06.166Z,628.00
2023-05-01T02:27:06.189Z,634.00
2023-05-01T02:28:06.208Z,639.00
2023-05-01T02:29:06.251Z,633.00
2023-05-01T02:30:06.248Z,628.00
2023-05-01T02:31:06.295Z,624.00
2023-05-01T02:32:06.355Z,631.00
2023-05-01T02:33:06.315Z,625.00
2023-05-01T02:34:06.271Z,636.00
2023-05-01T02:35:06.304Z,631.00
2023-05-01T02:36:06.346Z,630.00
2023-05-01T02:37:06.332Z,635.00
2023-05-01T02:38:06.341Z,634.00
2023-05-01T02:39:06.346Z,637.00
2023-05-01T02:40:06.383Z,636.00
2023-05-01T02:41:06.366Z,634.00
2023-05-01T02:42:06.396Z,620.00
2023-05-01T02:43:06.371Z,630.00
2023-05-01T02:44:06.385Z,628.00
2023-05-01T02:45:06.427Z,632.00
2023-05-01T02:46:06.546Z,632.00
2023-05-01T02:47:06.448Z,625.00
2023-05-01T02:48:06.497Z,628.00
2023-05-01T02:49:06.471Z,628.00
2023-05-01T02:50:06.476Z,630.00
2023-05-01T02:51:06.504Z,632.00
2023-05-01T02:52:06.500Z,626.00
2023-05-01T02:53:06.524Z,627.00
2023-05-01T02:54:06.536Z,632.00
2023-05-01T02:55:06.558Z,626.00
2023-05-01T02:56:06.574Z,621.00
2023-05-01T02:57:06.616Z,623.00
2023-05-01T02:58:06.617Z,631.00
2023-05-01T02:59:06.637Z,627.00
2023-05-01T03:00:06.631Z,627.00
2023-05-01T03:01:06.711Z,624.00
2023-05-01T03:02:06.674Z,624.00
2023-05-01T03:03:06.738Z,630.00
2023-05-01T03:04:06.801Z,635.00
2023-05-01T03:05:06.735Z,636.00
2023-05-01T03:06:06.785Z,637.00
2023-05-01T03:07:06.787Z,631.00
2023-05-01T03:08:06.799Z,634.00
2023-05-01T03:09:06.828Z,633.00
2023-05-01T03:10:06.845Z,633.00
2023-05-01T03:11:06.848Z,629.00
2023-05-01T03:12:06.847Z,630.00
2023-05-01T03:13:06.848Z,637.00
2023-05-01T03:14:06.854Z,638.00
2023-05-01T03:15:06.883Z,634.00
2023-05-01T03:16:06.925Z,628.00
2023-05-01T03:17:06.919Z,632.00
2023-05-01T03:18:07.073Z,635.00
2023-05-01T03:19:06.911Z,640.00
2023-05-01T03:20:06.971Z,639.00
2023-05-01T03:21:06.990Z,640.00
2023-05-01T03:22:06.997Z,638.00
2023-05-01T03:23:07.037Z,635.00
2023-05-01T03:24:07.056Z,633.00
2023-05-01T03:25:07.082Z,631.00
2023-05-01T03:26:07.108Z,639.00
2023-05-01T03:27:07.110Z,637.00
2023-05-01T03:28:07.147Z,635.00
2023-05-01T03:29:07.116Z,638.00
2023-05-01T03:30:07.130Z,639.00
2023-05-01T03:31:07.135Z,642.00
2023-05-01T03:32:07.148Z,641.00
2023-05-01T03:33:07.177Z,632.00
2023-05-01T03:34:07.116Z,637.00
2023-05-01T03:35:07.130Z,637.00
2023-05-01T03:36:07.162Z,636.00
2023-05-01T03:37:07.227Z,639.00
2023-05-01T03:38:07.153Z,640.00
2023-05-01T03:39:07.149Z,648.00
2023-05-01T03:40:07.148Z,644.00
2023-05-01T03:41:07.525Z,645.00
2023-05-01T03:42:07.187Z,646.00
2023-05-01T03:43:07.189Z,654.00
2023-05-01T03:44:07.198Z,656.00
2023-05-01T03:45:07.220Z,653.00
2023-05-01T03:46:07.254Z,658.00
2023-05-01T03:47:07.235Z,661.00
2023-05-01T03:48:07.293Z,660.00
2023-05-01T03:49:07.253Z,662.00
2023-05-01T03:50:07.267Z,658.00
2023-05-01T03:51:07.276Z,658.00
2023-05-01T03:52:07.270Z,662.00
2023-05-01T03:53:07.368Z,658.00
2023-05-01T03:54:07.276Z,661.00
2023-05-01T03:55:07.269Z,663.00
2023-05-01T03:56:07.281Z,661.00
2023-05-01T03:57:07.281Z,660.00
2023-05-01T03:58:07.261Z,660.00
2023-05-01T03:59:07.260Z,661.00
2023-05-01T04:00:07.261Z,658.00
2023-05-01T04:01:07.281Z,663.00
2023-05-01T04:02:07.363Z,663.00
2023-05-01T04:03:07.330Z,665.00
2023-05-01T04:04:07.363Z,665.00
2023-05-01T04:05:07.374Z,662.00
2023-05-01T04:06:07.382Z,665.00
2023-05-01T04:07:07.347Z,671.00
2023-05-01T04:08:07.314Z,670.00
2023-05-01T04:09:07.573Z,680.00
2023-05-01T04:10:07.351Z,674.00
2023-05-01T04:11:07.347Z,677.00
2023-05-01T04:12:07.369Z,681.00
2023-05-01T04:13:07.374Z,693.00
2023-05-01T04:14:07.391Z,678.00
2023-05-01T04:15:07.392Z,680.00
2023-05-01T04:16:07.412Z,678.00
2023-05-01T04:17:07.414Z,674.00
2023-05-01T04:18:07.507Z,684.00
2023-05-01T04:19:07.437Z,672.00
2023-05-01T04:20:07.466Z,668.00
2023-05-01T04:21:07.515Z,670.00
2023-05-01T04:22:07.481Z,663.00
2023-05-01T04:23:07.509Z,671.00
2023-05-01T04:24:07.550Z,689.00
2023-05-01T04:25:07.657Z,689.00
2023-05-01T04:26:07.502Z,677.00
2023-05-01T04:27:07.530Z,704.00
2023-05-01T04:28:07.616Z,695.00
2023-05-01T04:29:07.483Z,693.00
2023-05-01T04:30:07.493Z,702.00
2023-05-01T04:31:07.552Z,693.00
2023-05-01T04:32:07.574Z,694.00
2023-05-01T04:33:07.529Z,676.00
2023-05-01T04:34:07.485Z,698.00
2023-05-01T04:35:07.491Z,702.00
2023-05-01T04:36:07.521Z,697.00
2023-05-01T04:37:07.528Z,689.00
2023-05-01T04:38:07.560Z,675.00
2023-05-01T04:39:07.630Z,683.00
2023-05-01T04:40:08.616Z,687.00
2023-05-01T04:41:07.685Z,702.00
2023-05-01T04:42:07.606Z,699.00
2023-05-01T04:43:07.614Z,696.00
2023-05-01T04:44:07.609Z,689.00
2023-05-01T04:45:07.607Z,692.00
2023-05-01T04:46:07.711Z,695.00
2023-05-01T04:47:07.678Z,697.00
2023-05-01T04:48:07.674Z,683.00
2023-05-01T04:49:07.588Z,696.00
2023-05-01T04:50:07.578Z,694.00
2023-05-01T04:51:07.571Z,716.00
2023-05-01T04:52:07.582Z,707.00
2023-05-01T04:53:07.580Z,714.00
2023-05-01T04:54:07.576Z,693.00
2023-05-01T04:55:07.572Z,711.00
2023-05-01T04:56:07.580Z,715.00
2023-05-01T04:57:07.589Z,700.00
2023-05-01T04:58:07.582Z,689.00
2023-05-01T04:59:07.593Z,686.00
2023-05-01T05:00:07.589Z,680.00
2023-05-01T05:01:07.612Z,679.00
2023-05-01T05:02:07.623Z,689.00
2023-05-01T05:03:07.661Z,665.00
2023-05-01T05:04:07.692Z,675.00
2023-05-01T05:05:07.585Z,668.00
2023-05-01T05:06:07.649Z,663.00
2023-05-01T05:07:07.634Z,680.00
2023-05-01T05:08:07.591Z,670.00
2023-05-01T05:09:07.613Z,663.00
2023-05-01T05:10:07.657Z,659.00
2023-05-01T05:11:07.607Z,664.00
2023-05-01T05:12:07.603Z,664.00
2023-05-01T05:13:07.580Z,671.00
2023-05-01T05:14:07.575Z,669.00
2023-05-01T05:15:07.589Z,667.00
2023-05-01T05:16:07.614Z,665.00
2023-05-01T05:17:07.584Z,661.00
2023-05-01T05:18:07.767Z,660.00
2023-05-01T05:19:07.598Z,665.00
2023-05-01T05:20:07.572Z,666.00
2023-05-01T05:21:07.641Z,674.00
2023-05-01T05:22:07.615Z,665.00
2023-05-01T05:23:08.613Z,667.00
2023-05-01T05:24:07.610Z,679.00
2023-05-01T05:25:07.572Z,673.00
2023-05-01T05:26:07.584Z,685.00
2023-05-01T05:27:07.577Z,666.00
2023-05-01T05:28:07.585Z,662.00
2023-05-01T05:29:07.579Z,680.00
2023-05-01T05:30:07.639Z,677.00
2023-05-01T05:31:07.657Z,663.00
2023-05-01T05:32:07.677Z,671.00
2023-05-01T05:33:07.719Z,676.00
2023-05-01T05:34:07.608Z,661.00
2023-05-01T05:35:07.593Z,679.00
2023-05-01T05:36:07.585Z,676.00
2023-05-01T05:37:07.582Z,665.00
2023-05-01T05:38:07.575Z,678.00
2023-05-01T05:39:07.553Z,672.00
2023-05-01T05:40:07.583Z,671.00
2023-05-01T05:41:07.535Z,702.00
2023-05-01T05:42:07.526Z,668.00
2023-05-01T05:43:07.522Z,663.00
2023-05-01T05:44:07.522Z,666.00
2023-05-01T05:45:07.513Z,671.00
2023-05-01T05:46:07.547Z,688.00
2023-05-01T05:47:07.537Z,675.00
2023-05-01T05:48:07.542Z,677.00
2023-05-01T05:49:07.494Z,668.00
2023-05-01T05:50:07.504Z,661.00
2023-05-01T05:51:08.089Z,674.00
2023-05-01T05:52:07.478Z,663.00
2023-05-01T05:53:07.476Z,662.00
2023-05-01T05:54:07.492Z,664.00
2023-05-01T05:55:07.439Z,666.00
2023-05-01T05:56:07.473Z,664.00
2023-05-01T05:57:07.427Z,679.00
2023-05-01T05:58:07.414Z,678.00
2023-05-01T05:59:07.409Z,673.00
2023-05-01T06:00:07.485Z,686.00
2023-05-01T06:01:07.408Z,679.00
2023-05-01T06:02:07.449Z,672.00
2023-05-01T06:03:07.482Z,664.00
2023-05-01T06:04:07.385Z,658.00
2023-05-01T06:05:07.414Z,666.00
2023-05-01T06:06:07.468Z,663.00
2023-05-01T06:07:07.594Z,667.00
2023-05-01T06:08:07.401Z,668.00
2023-05-01T06:09:07.376Z,685.00
2023-05-01T06:10:07.349Z,680.00
2023-05-01T06:11:07.366Z,666.00
2023-05-01T06:12:07.357Z,663.00
2023-05-01T06:13:12.946Z,669.00
2023-05-01T06:14:08.335Z,669.00
2023-05-01T06:15:07.314Z,662.00
2023-05-01T06:16:07.398Z,667.00
2023-05-01T06:17:07.302Z,668.00
2023-05-01T06:18:07.366Z,664.00
2023-05-01T06:19:08.078Z,660.00
2023-05-01T06:20:09.094Z,658.00
2023-05-01T06:21:07.262Z,657.00
2023-05-01T06:22:07.310Z,655.00
2023-05-01T06:23:07.279Z,660.00
2023-05-01T06:24:07.282Z,661.00
2023-05-01T06:25:07.271Z,661.00
2023-05-01T06:26:07.261Z,659.00
2023-05-01T06:27:07.249Z,656.00
2023-05-01T06:28:07.325Z,655.00
2023-05-01T06:29:07.385Z,650.00
2023-05-01T06:30:07.335Z,653.00
2023-05-01T06:31:07.292Z,653.00
2023-05-01T06:32:07.271Z,653.00
2023-05-01T06:33:07.337Z,654.00
2023-05-01T06:34:07.258Z,650.00
2023-05-01T06:35:07.214Z,655.00
2023-05-01T06:36:07.213Z,649.00
2023-05-01T06:37:07.202Z,650.00
2023-05-01T06:38:07.282Z,648.00
2023-05-01T06:39:07.222Z,655.00
2023-05-01T06:40:07.187Z,650.00
2023-05-01T06:41:07.207Z,656.00
2023-05-01T06:42:07.192Z,656.00
2023-05-01T06:43:07.202Z,648.00
2023-05-01T06:44:07.191Z,649.00
2023-05-01T06:45:07.220Z,649.00
2023-05-01T06:46:07.264Z,653.00
2023-05-01T06:47:07.365Z,652.00
2023-05-01T06:48:07.324Z,647.00
2023-05-01T06:49:08.100Z,653.00
2023-05-01T06:50:07.273Z,654.00
2023-05-01T06:51:07.288Z,650.00
2023-05-01T06:52:07.339Z,653.00
2023-05-01T06:53:07.322Z,648.00
2023-05-01T06:54:07.330Z,652.00
2023-05-01T06:55:07.322Z,649.00
2023-05-01T06:56:07.352Z,650.00
2023-05-01T06:57:07.384Z,649.00
2023-05-01T06:58:16.581Z,640.00
2023-05-01T06:59:08.382Z,641.00
2023-05-01T07:00:07.381Z,641.00
2023-05-01T07:01:07.412Z,642.00
2023-05-01T07:02:07.391Z,640.00
2023-05-01T07:03:07.383Z,640.00
2023-05-01T07:04:07.338Z,648.00
2023-05-01T07:05:07.402Z,649.00
2023-05-01T07:06:07.366Z,642.00
2023-05-01T07:07:07.347Z,638.00
2023-05-01T07:08:07.416Z,637.00
2023-05-01T07:09:07.464Z,649.00
2023-05-01T07:10:07.580Z,640.00
2023-05-01T07:11:10.159Z,646.00
2023-05-01T07:12:07.761Z,637.00
2023-05-01T07:13:07.839Z,634.00
2023-05-01T07:14:07.881Z,642.00
2023-05-01T07:15:07.944Z,645.00
2023-05-01T07:16:08.045Z,640.00
2023-05-01T07:17:08.084Z,642.00
2023-05-01T07:18:08.293Z,651.00
2023-05-01T07:19:08.165Z,650.00
2023-05-01T07:20:08.243Z,660.00
2023-05-01T07:21:08.256Z,651.00
2023-05-01T07:22:08.293Z,644.00
2023-05-01T07:23:08.292Z,647.00
2023-05-01T07:24:08.372Z,639.00
2023-05-01T07:25:08.416Z,648.00
2023-05-01T07:26:08.472Z,642.00
2023-05-01T07:27:08.508Z,647.00
2023-05-01T07:28:08.571Z,658.00
2023-05-01T07:29:08.657Z,650.00
2023-05-01T07:30:08.719Z,646.00
2023-05-01T07:31:08.770Z,650.00
2023-05-01T07:32:08.827Z,643.00
2023-05-01T07:33:08.800Z,649.00
2023-05-01T07:34:08.756Z,648.00
2023-05-01T07:35:08.721Z,648.00
2023-05-01T07:36:08.736Z,641.00
2023-05-01T07:37:08.729Z,637.00
2023-05-01T07:38:08.699Z,635.00
2023-05-01T07:39:08.691Z,631.00
2023-05-01T07:40:08.738Z,644.00
2023-05-01T07:41:08.765Z,656.00
2023-05-01T07:42:08.890Z,655.00
2023-05-01T07:43:08.901Z,657.00
2023-05-01T07:44:08.980Z,644.00
2023-05-01T07:45:09.056Z,651.00
2023-05-01T07:46:09.081Z,634.00
2023-05-01T07:47:09.196Z,639.00
2023-05-01T07:48:09.292Z,635.00
2023-05-01T07:49:09.271Z,636.00
2023-05-01T07:50:09.387Z,642.00
2023-05-01T07:51:09.315Z,642.00
2023-05-01T07:52:09.319Z,638.00
2023-05-01T07:53:09.309Z,642.00
2023-05-01T07:54:09.309Z,630.00
2023-05-01T07:55:09.319Z,631.00
2023-05-01T07:56:09.297Z,619.00
2023-05-01T07:57:09.292Z,622.00
2023-05-01T07:58:09.254Z,620.00
2023-05-01T07:59:09.233Z,631.00
2023-05-01T08:00:09.238Z,628.00
2023-05-01T08:01:09.265Z,630.00
2023-05-01T08:02:09.317Z,634.00
2023-05-01T08:03:09.588Z,634.00
2023-05-01T08:04:09.451Z,632.00
2023-05-01T08:05:09.452Z,626.00
2023-05-01T08:06:09.555Z,609.00
2023-05-01T08:07:09.542Z,614.00
2023-05-01T08:08:09.644Z,617.00
2023-05-01T08:09:09.750Z,624.00
2023-05-01T08:10:09.721Z,616.00
2023-05-01T08:11:09.772Z,602.00
2023-05-01T08:12:09.825Z,585.00
2023-05-01T08:13:09.886Z,585.00
2023-05-01T08:14:09.945Z,594.00
2023-05-01T08:15:10.001Z,587.00
2023-05-01T08:16:10.166Z,571.00
2023-05-01T08:17:10.118Z,574.00
2023-05-01T08:18:10.221Z,587.00
2023-05-01T08:19:10.213Z,585.00
2023-05-01T08:20:10.304Z,579.00
2023-05-01T08:21:10.320Z,577.00
2023-05-01T08:22:10.390Z,562.00
2023-05-01T08:23:10.448Z,559.00
2023-05-01T08:24:10.486Z,556.00
2023-05-01T08:25:10.737Z,555.00
2023-05-01T08:26:10.603Z,549.00
2023-05-01T08:27:10.705Z,539.00
2023-05-01T08:28:10.706Z,507.00
2023-05-01T08:29:10.762Z,510.00
2023-05-01T08:30:10.832Z,510.00
2023-05-01T08:31:11.027Z,500.00
2023-05-01T08:32:10.920Z,505.00
2023-05-01T08:33:11.040Z,503.00
2023-05-01T08:34:11.048Z,496.00
2023-05-01T08:35:11.092Z,501.00
2023-05-01T08:36:11.166Z,508.00
2023-05-01T08:37:11.260Z,510.00
2023-05-01T08:38:11.300Z,514.00
2023-05-01T08:39:11.329Z,516.00
2023-05-01T08:40:11.511Z,504.00
2023-05-01T08:41:11.454Z,519.00
2023-05-01T08:42:11.529Z,520.00
2023-05-01T08:43:11.526Z,519.00
2023-05-01T08:44:13.139Z,522.00
2023-05-01T08:45:11.627Z,501.00
2023-05-01T08:46:11.698Z,500.00
2023-05-01T08:47:12.189Z,505.00
2023-05-01T08:48:11.988Z,502.00
2023-05-01T08:49:11.865Z,502.00
2023-05-01T08:50:12.011Z,505.00
2023-05-01T08:51:12.006Z,502.00
2023-05-01T08:52:11.930Z,505.00
2023-05-01T08:53:12.161Z,509.00
2023-05-01T08:54:11.970Z,506.00
2023-05-01T08:55:12.023Z,520.00
2023-05-01T08:56:12.076Z,518.00
2023-05-01T08:57:12.100Z,511.00
2023-05-01T08:58:12.166Z,516.00
2023-05-01T08:59:12.194Z,529.00
2023-05-01T09:00:12.229Z,542.00
2023-05-01T09:01:12.303Z,524.00
2023-05-01T09:02:12.568Z,538.00
2023-05-01T09:03:12.436Z,534.00
2023-05-01T09:04:12.455Z,543.00
2023-05-01T09:05:12.477Z,556.00
2023-05-01T09:06:12.547Z,547.00
2023-05-01T09:07:12.511Z,556.00
2023-05-01T09:08:12.548Z,559.00
2023-05-01T09:09:12.602Z,557.00
2023-05-01T09:10:12.622Z,577.00
2023-05-01T09:11:12.686Z,573.00
2023-05-01T09:12:12.710Z,585.00
2023-05-01T09:13:12.782Z,576.00
2023-05-01T09:14:12.786Z,598.00
2023-05-01T09:15:12.815Z,582.00
2023-05-01T09:16:12.883Z,595.00
2023-05-01T09:17:12.885Z,595.00
2023-05-01T09:18:12.995Z,593.00
2023-05-01T09:19:12.990Z,571.00
2023-05-01T09:20:13.021Z,572.00
2023-05-01T09:21:13.064Z,592.00
2023-05-01T09:22:13.103Z,587.00
2023-05-01T09:23:13.142Z,606.00
2023-05-01T09:24:13.173Z,617.00
2023-05-01T09:25:13.225Z,603.00
2023-05-01T09:26:13.278Z,590.00
2023-05-01T09:27:13.368Z,605.00
2023-05-01T09:28:13.393Z,613.00
2023-05-01T09:29:13.412Z,606.00
2023-05-01T09:30:13.448Z,595.00
2023-05-01T09:31:13.500Z,622.00
2023-05-01T09:32:13.681Z,604.00
2023-05-01T09:33:13.690Z,615.00
2023-05-01T09:34:13.605Z,627.00
2023-05-01T09:35:13.657Z,618.00
2023-05-01T09:36:13.683Z,633.00
2023-05-01T09:37:13.758Z,631.00
2023-05-01T09:38:13.786Z,629.00
2023-05-01T09:39:13.816Z,615.00
2023-05-01T09:40:13.954Z,632.00
2023-05-01T09:41:13.932Z,639.00
2023-05-01T09:42:13.957Z,645.00
2023-05-01T09:43:14.029Z,646.00
2023-05-01T09:44:14.042Z,628.00
2023-05-01T09:45:14.102Z,626.00
2023-05-01T09:46:14.176Z,645.00
2023-05-01T09:47:14.172Z,648.00
2023-05-01T09:48:14.214Z,652.00
2023-05-01T09:49:14.259Z,647.00
2023-05-01T09:50:14.297Z,649.00
2023-05-01T09:51:14.289Z,649.00
2023-05-01T09:52:14.289Z,648.00
2023-05-01T09:53:14.331Z,650.00
2023-05-01T09:54:14.264Z,643.00
2023-05-01T09:55:14.280Z,631.00
2023-05-01T09:56:14.261Z,632.00
2023-05-01T09:57:14.237Z,624.00
2023-05-01T09:58:14.240Z,639.00
2023-05-01T09:59:14.228Z,645.00
2023-05-01T10:00:14.234Z,657.00
2023-05-01T10:01:14.263Z,648.00
2023-05-01T10:02:14.268Z,653.00
2023-05-01T10:03:14.309Z,652.00
2023-05-01T10:04:14.249Z,657.00
2023-05-01T10:05:14.283Z,644.00
2023-05-01T10:06:14.377Z,638.00
2023-05-01T10:07:14.406Z,649.00
2023-05-01T10:08:14.455Z,680.00
2023-05-01T10:09:14.447Z,673.00
2023-05-01T10:10:14.485Z,647.00
2023-05-01T10:11:15.178Z,639.00
2023-05-01T10:12:14.592Z,635.00
2023-05-01T10:13:14.630Z,638.00
2023-05-01T10:14:14.732Z,657.00
2023-05-01T10:15:24.808Z,651.00
2023-05-01T10:16:15.738Z,652.00
2023-05-01T10:17:14.745Z,651.00
2023-05-01T10:18:14.764Z,655.00
2023-05-01T10:19:14.673Z,663.00
2023-05-01T10:20:14.654Z,654.00
2023-05-01T10:21:14.772Z,659.00
2023-05-01T10:22:14.655Z,649.00
2023-05-01T10:23:14.632Z,645.00
2023-05-01T10:24:14.607Z,652.00
2023-05-01T10:25:15.189Z,642.00
2023-05-01T10:26:14.746Z,644.00
2023-05-01T10:27:14.793Z,661.00
2023-05-01T10:28:14.716Z,653.00
2023-05-01T10:29:14.764Z,638.00
2023-05-01T10:30:14.822Z,642.00
2023-05-01T10:31:14.959Z,644.00
2023-05-01T10:32:14.900Z,640.00
2023-05-01T10:33:15.024Z,655.00
2023-05-01T10:34:15.017Z,659.00
2023-05-01T10:35:14.963Z,645.00
2023-05-01T10:36:14.969Z,631.00
2023-05-01T10:37:14.966Z,614.00
2023-05-01T10:38:14.961Z,612.00
2023-05-01T10:39:14.934Z,634.00
2023-05-01T10:40:14.904Z,627.00
2023-05-01T10:41:14.906Z,625.00
2023-05-01T10:42:14.913Z,618.00
2023-05-01T10:43:14.913Z,629.00
2023-05-01T10:44:14.878Z,630.00
2023-05-01T10:45:14.880Z,630.00
2023-05-01T10:46:14.925Z,636.00
2023-05-01T10:47:14.870Z,648.00
2023-05-01T10:48:14.849Z,662.00
2023-05-01T10:49:14.849Z,649.00
2023-05-01T10:50:14.877Z,644.00
2023-05-01T10:51:14.821Z,635.00
2023-05-01T10:52:14.818Z,656.00
2023-05-01T10:53:14.893Z,654.00
2023-05-01T10:54:14.792Z,650.00
2023-05-01T10:55:14.797Z,647.00
2023-05-01T10:56:14.827Z,656.00
2023-05-01T10:57:14.798Z,656.00
2023-05-01T10:58:14.840Z,654.00
2023-05-01T10:59:14.792Z,655.00
2023-05-01T11:00:14.848Z,672.00
2023-05-01T11:01:14.782Z,660.00
2023-05-01T11:02:14.790Z,673.00
2023-05-01T11:03:14.784Z,694.00
2023-05-01T11:04:14.731Z,679.00
2023-05-01T11:05:14.766Z,662.00
2023-05-01T11:06:14.829Z,689.00
2023-05-01T11:07:14.830Z,662.00
2023-05-01T11:08:14.697Z,654.00
2023-05-01T11:09:14.732Z,653.00
2023-05-01T11:10:14.746Z,689.00
2023-05-01T11:11:14.854Z,656.00
2023-05-01T11:12:14.822Z,678.00
2023-05-01T11:13:14.889Z,656.00
2023-05-01T11:14:15.703Z,658.00
2023-05-01T11:15:14.966Z,653.00
2023-05-01T11:16:15.056Z,662.00
2023-05-01T11:17:15.048Z,664.00
2023-05-01T11:18:15.040Z,664.00
2023-05-01T11:19:14.999Z,647.00
2023-05-01T11:20:15.000Z,630.00
2023-05-01T11:21:15.024Z,631.00
2023-05-01T11:22:14.967Z,645.00
2023-05-01T11:23:14.976Z,637.00
2023-05-01T11:24:14.944Z,643.00
2023-05-01T11:25:14.941Z,638.00
2023-05-01T11:26:14.936Z,623.00
2023-05-01T11:27:14.947Z,635.00
2023-05-01T11:28:14.947Z,629.00
2023-05-01T11:29:14.920Z,633.00
2023-05-01T11:30:14.917Z,609.00
2023-05-01T11:31:14.928Z,618.00
2023-05-01T11:32:15.025Z,623.00
2023-05-01T11:33:14.958Z,595.00
2023-05-01T11:34:14.888Z,607.00
2023-05-01T11:35:14.897Z,605.00
2023-05-01T11:36:14.922Z,611.00
2023-05-01T11:37:14.965Z,604.00
2023-05-01T11:38:14.992Z,602.00
2023-05-01T11:39:15.002Z,606.00
2023-05-01T11:40:15.048Z,602.00
2023-05-01T11:41:15.042Z,603.00
2023-05-01T11:42:15.216Z,603.00
2023-05-01T11:43:15.027Z,608.00
2023-05-01T11:44:15.003Z,617.00
2023-05-01T11:45:14.985Z,615.00
2023-05-01T11:46:15.053Z,607.00
2023-05-01T11:47:14.949Z,599.00
2023-05-01T11:48:14.981Z,605.00
2023-05-01T11:49:14.958Z,623.00
2023-05-01T11:50:14.923Z,617.00
2023-05-01T11:51:14.920Z,627.00
2023-05-01T11:52:14.915Z,618.00
2023-05-01T11:53:14.918Z,603.00
2023-05-01T11:54:15.774Z,593.00
2023-05-01T11:55:14.895Z,602.00
2023-05-01T11:56:25.377Z,612.00
2023-05-01T11:57:15.895Z,612.00
2023-05-01T11:58:14.873Z,609.00
2023-05-01T11:59:14.869Z,613.00
2023-05-01T12:00:14.850Z,618.00
2023-05-01T12:01:14.830Z,613.00
2023-05-01T12:02:14.872Z,617.00
2023-05-01T12:03:15.349Z,620.00
2023-05-01T12:04:14.863Z,637.00
2023-05-01T12:05:14.805Z,615.00
2023-05-01T12:06:14.869Z,625.00
2023-05-01T12:07:14.778Z,621.00
2023-05-01T12:08:14.768Z,624.00
2023-05-01T12:09:14.745Z,629.00
2023-05-01T12:10:14.741Z,625.00
2023-05-01T12:11:14.718Z,646.00
2023-05-01T12:12:14.707Z,629.00
2023-05-01T12:13:14.705Z,640.00
2023-05-01T12:14:14.686Z,623.00
2023-05-01T12:15:14.677Z,630.00
2023-05-01T12:16:14.655Z,628.00
2023-05-01T12:17:14.698Z,619.00
2023-05-01T12:18:14.766Z,637.00
2023-05-01T12:19:14.620Z,617.00
2023-05-01T12:20:14.595Z,610.00
2023-05-01T12:21:14.608Z,625.00
2023-05-01T12:22:14.641Z,613.00
2023-05-01T12:23:14.753Z,610.00
2023-05-01T12:24:14.665Z,620.00
2023-05-01T12:25:14.719Z,619.00
2023-05-01T12:26:14.732Z,608.00
2023-05-01T12:27:14.770Z,615.00
2023-05-01T12:28:14.795Z,618.00